This is the latest recevied weather packets stored in our database for station/object SP3SWJ-13. If no packets are shown the sender has not sent any weather packets the latest 10 day(s).
| Time | Temp. | Humidity | Pressure | Rain* | Wind** | Luminosity | Snow |
|---|---|---|---|---|---|---|---|
| 1777977309 | 21.11° C | 57% | 999.7 hPa | - | - | 170 W/m² | - |
| 1777977009 | 21.67° C | 55% | 999.8 hPa | - | - | 258 W/m² | - |
| 1777976707 | 21.11° C | 56% | 999.8 hPa | - | - | 510 W/m² | - |
| 1777976407 | 20.56° C | 56% | 999.9 hPa | - | - | 256 W/m² | - |
| 1777976106 | 20.56° C | 57% | 999.9 hPa | - | - | 326 W/m² | - |
| 1777975804 | 20° C | 59% | 999.9 hPa | - | - | 246 W/m² | - |
| 1777975504 | 20° C | 60% | 999.9 hPa | - | - | 184 W/m² | - |
| 1777975203 | 20° C | 59% | 1000 hPa | - | - | 170 W/m² | - |
| 1777974902 | 20.56° C | 57% | 1000.1 hPa | - | - | 223 W/m² | - |
| 1777974601 | 20° C | 58% | 1000.1 hPa | - | - | 332 W/m² | - |
| 1777974301 | 20° C | 61% | 1000.1 hPa | - | - | 356 W/m² | - |
| 1777974000 | 19.44° C | 61% | 1000.1 hPa | - | - | 370 W/m² | - |
| 1777973699 | 18.89° C | 63% | 1000.1 hPa | - | - | 339 W/m² | - |
| 1777973398 | 18.89° C | 64% | 1000.2 hPa | - | - | 201 W/m² | - |
| 1777973097 | 18.89° C | 63% | 1000.2 hPa | - | - | 224 W/m² | - |
| 1777972796 | 19.44° C | 63% | 1000.1 hPa | - | - | 231 W/m² | - |
| 1777972495 | 18.89° C | 64% | 1000.1 hPa | - | - | 350 W/m² | - |
| 1777972194 | 18.89° C | 65% | 1000.2 hPa | - | - | 302 W/m² | - |
| 1777971893 | 18.89° C | 64% | 1000.2 hPa | - | - | 218 W/m² | - |
| 1777971593 | 18.89° C | 63% | 1000.2 hPa | - | - | 240 W/m² | - |
| 1777971291 | 18.33° C | 65% | 1000.2 hPa | - | - | 366 W/m² | - |
| 1777970990 | 18.33° C | 67% | 1000.1 hPa | - | - | 296 W/m² | - |
| 1777970687 | 18.33° C | 66% | 1000.2 hPa | - | - | 191 W/m² | - |
| 1777970385 | 17.78° C | 67% | 1000.3 hPa | - | - | 240 W/m² | - |
| 1777970085 | 17.78° C | 68% | 1000.3 hPa | - | - | 170 W/m² | - |
* Rain since midnight (hover to see other rain measurements)
** Current wind speed in m/s (hover to see current wind gust speed)